Time;durP1;ratioP1;P1;durP2;ratioP2;P2;SDS_P1;SDS_P2;PMS_P1;PMS_P2;Temp;Humidity;BMP_temperature;BMP_pressure;BME280_temperature;BME280_humidity;BME280_pressure;Samples;Min_cycle;Max_cycle;Signal;HPM_P1;HPM_P2
2021/12/12 00:00:15;;;;;;;0.00;0.00;;;2.80;99.90;;;;;;5098048;28;20054;-46
2021/12/12 00:02:56;;;;;;;0.70;0.70;;;2.80;99.90;;;;;;5116563;28;20028;-46
2021/12/12 00:05:28;;;;;;;0.00;0.00;;;2.60;99.90;;;;;;5116137;28;20077;-46
2021/12/12 00:07:54;;;;;;;0.00;0.00;;;2.70;99.90;;;;;;5115985;28;20020;-49
2021/12/12 00:10:24;;;;;;;0.00;0.00;;;2.60;99.90;;;;;;5116093;28;20028;-46
2021/12/12 00:12:59;;;;;;;0.00;0.00;;;2.70;99.90;;;;;;5116114;28;20028;-48
2021/12/12 00:15:26;;;;;;;0.00;0.00;;;2.70;99.90;;;;;;5115798;28;20034;-47
2021/12/12 00:17:52;;;;;;;0.00;0.00;;;2.70;99.90;;;;;;5116235;28;20023;-47
2021/12/12 00:20:20;;;;;;;0.00;0.00;;;2.70;99.90;;;;;;5116133;28;20028;-48
2021/12/12 00:22:47;;;;;;;0.00;0.00;;;2.90;99.90;;;;;;5115692;28;20115;-47
2021/12/12 00:25:16;;;;;;;0.00;0.00;;;2.90;99.90;;;;;;5116067;28;20032;-46
2021/12/12 00:27:42;;;;;;;0.00;0.00;;;3.00;99.90;;;;;;5115855;28;20024;-47
2021/12/12 00:30:09;;;;;;;0.00;0.00;;;3.00;99.90;;;;;;5115724;28;20027;-46
2021/12/12 00:32:37;;;;;;;0.00;0.00;;;3.00;99.90;;;;;;5115619;28;20016;-46
2021/12/12 00:35:06;;;;;;;18.00;16.35;;;3.10;99.90;;;;;;5115595;28;20466;-46
2021/12/12 00:37:32;;;;;;;0.00;0.00;;;3.10;99.90;;;;;;5115749;28;20416;-45
2021/12/12 00:40:07;;;;;;;0.00;0.00;;;3.00;99.90;;;;;;5115365;28;20043;-46
2021/12/12 00:42:37;;;;;;;0.00;0.00;;;3.10;99.90;;;;;;5115740;28;20366;-47
2021/12/12 00:45:09;;;;;;;0.00;0.00;;;3.20;99.90;;;;;;5115654;28;20024;-46
2021/12/12 00:47:34;;;;;;;0.03;0.03;;;3.20;99.90;;;;;;5115307;28;20023;-47
2021/12/12 00:50:02;;;;;;;0.00;0.00;;;3.20;99.90;;;;;;5115550;28;20374;-47
2021/12/12 00:52:27;;;;;;;0.00;0.00;;;3.20;99.90;;;;;;5115388;28;20492;-46
2021/12/12 00:54:53;;;;;;;0.00;0.00;;;3.20;99.90;;;;;;5115560;28;20063;-46
2021/12/12 00:57:21;;;;;;;0.00;0.00;;;3.20;99.90;;;;;;5115215;28;20382;-46
2021/12/12 00:59:48;;;;;;;0.00;0.00;;;3.20;99.90;;;;;;5115329;28;20054;-46
2021/12/12 01:02:25;;;;;;;0.00;0.00;;;3.20;99.90;;;;;;5115108;28;20031;-47
2021/12/12 01:04:55;;;;;;;0.00;0.00;;;3.10;99.90;;;;;;5114870;28;20051;-47
2021/12/12 01:07:28;;;;;;;0.00;0.00;;;3.00;99.90;;;;;;5115247;28;20020;-46
2021/12/12 01:10:02;;;;;;;0.00;0.00;;;3.00;99.90;;;;;;5114769;28;20027;-51
2021/12/12 01:12:32;;;;;;;0.00;0.00;;;2.90;99.90;;;;;;5115018;28;20027;-47
2021/12/12 01:15:07;;;;;;;0.00;0.00;;;2.80;99.90;;;;;;5114822;28;20457;-47
2021/12/12 01:17:40;;;;;;;3.10;1.38;;;2.80;99.90;;;;;;5114791;28;20020;-47
2021/12/12 01:20:19;;;;;;;0.00;0.00;;;2.90;99.90;;;;;;5115063;28;20036;-45
2021/12/12 01:22:46;;;;;;;0.00;0.00;;;2.80;99.90;;;;;;5114977;28;20026;-47
2021/12/12 01:25:21;;;;;;;4.80;1.38;;;2.80;99.90;;;;;;5114456;28;20030;-46
2021/12/12 01:27:47;;;;;;;0.35;0.35;;;2.90;99.90;;;;;;5114559;28;20095;-48
2021/12/12 01:30:15;;;;;;;0.00;0.00;;;2.80;99.90;;;;;;5114464;28;20031;-48
2021/12/12 01:32:42;;;;;;;1.13;1.13;;;2.80;99.90;;;;;;5114744;28;20474;-46
2021/12/12 01:35:15;;;;;;;0.57;0.43;;;2.80;99.90;;;;;;5096469;28;20438;-46
2021/12/12 01:37:50;;;;;;;0.20;0.10;;;2.80;99.90;;;;;;5114820;28;20047;-45
2021/12/12 01:40:23;;;;;;;3.90;1.65;;;2.70;99.90;;;;;;5114680;28;20148;-47
2021/12/12 01:42:55;;;;;;;0.00;0.00;;;2.80;99.90;;;;;;5114591;28;20534;-46
2021/12/12 01:45:26;;;;;;;0.15;0.15;;;2.80;99.90;;;;;;5114927;28;20126;-46
2021/12/12 01:47:55;;;;;;;5.85;5.25;;;2.80;99.90;;;;;;5114893;28;20454;-47
2021/12/12 01:50:40;;;;;;;0.00;0.00;;;2.80;99.90;;;;;;5114502;28;20046;-47
2021/12/12 01:53:10;;;;;;;0.00;0.00;;;2.80;99.90;;;;;;5114320;28;20084;-45
2021/12/12 01:55:41;;;;;;;0.00;0.00;;;2.80;99.90;;;;;;5114275;28;20434;-45
2021/12/12 01:58:12;;;;;;;0.00;0.00;;;2.80;99.90;;;;;;5114571;28;20038;-48
2021/12/12 02:00:48;;;;;;;0.00;0.00;;;2.80;99.90;;;;;;5114436;28;20040;-46
2021/12/12 02:03:16;;;;;;;0.20;0.20;;;3.00;99.90;;;;;;5096105;28;20047;-45
2021/12/12 02:05:43;;;;;;;0.00;0.00;;;2.90;99.90;;;;;;5114489;28;20028;-47
2021/12/12 02:08:16;;;;;;;0.00;0.00;;;2.80;99.90;;;;;;5114255;28;20023;-46
2021/12/12 02:10:53;;;;;;;0.00;0.00;;;2.90;99.90;;;;;;5096178;28;20066;-46
2021/12/12 02:13:22;;;;;;;0.00;0.00;;;2.90;99.90;;;;;;5114164;28;20028;-46
2021/12/12 02:15:51;;;;;;;1.38;0.77;;;2.90;99.90;;;;;;5113841;28;20378;-50
2021/12/12 02:18:21;;;;;;;0.00;0.00;;;2.90;99.90;;;;;;5113684;28;20035;-48
2021/12/12 02:21:05;;;;;;;0.20;0.17;;;2.90;99.90;;;;;;5113339;28;20036;-46
2021/12/12 02:23:56;;;;;;;0.00;0.00;;;2.90;99.90;;;;;;5114411;28;20046;-45
2021/12/12 02:35:43;;;;;;;0.00;0.00;;;3.00;99.90;;;;;;5113809;28;20477;-49
2021/12/12 02:37:35;;;;;;;2.25;2.15;;;3.00;99.90;;;;;;5095576;28;20032;-48
2021/12/12 02:40:04;;;;;;;0.20;0.20;;;3.00;99.90;;;;;;5113739;28;20112;-45
2021/12/12 02:42:31;;;;;;;0.00;0.00;;;2.90;99.90;;;;;;5113516;28;20023;-48
2021/12/12 02:45:00;;;;;;;0.00;0.00;;;3.00;99.90;;;;;;5113587;28;20489;-50
2021/12/12 02:47:35;;;;;;;0.00;0.00;;;3.10;99.90;;;;;;5113502;28;20035;-45
2021/12/12 02:50:13;;;;;;;0.00;0.00;;;3.00;99.90;;;;;;5095920;28;20488;-46
2021/12/12 02:52:42;;;;;;;0.00;0.00;;;3.00;99.90;;;;;;5113586;28;20028;-48
2021/12/12 02:55:17;;;;;;;0.00;0.00;;;2.90;99.90;;;;;;5113580;28;20448;-46
2021/12/12 02:57:43;;;;;;;0.22;0.22;;;3.00;99.90;;;;;;5088462;28;20028;-47
2021/12/12 03:00:13;;;;;;;0.00;0.00;;;3.00;99.90;;;;;;5110794;28;20039;-48
2021/12/12 03:02:46;;;;;;;0.00;0.00;;;3.00;99.90;;;;;;5108675;28;20031;-46
2021/12/12 03:05:14;;;;;;;3.10;1.88;;;2.90;99.90;;;;;;5073761;28;20129;-48
2021/12/12 03:07:41;;;;;;;0.43;0.43;;;2.90;99.90;;;;;;5056640;28;20060;-49
2021/12/12 03:10:10;;;;;;;0.00;0.00;;;2.90;99.90;;;;;;5072188;28;20482;-49
2021/12/12 03:12:37;;;;;;;0.00;0.00;;;3.00;99.90;;;;;;5078486;28;20855;-50
2021/12/12 03:15:17;;;;;;;0.00;0.00;;;3.00;99.90;;;;;;5092464;28;20059;-47
2021/12/12 03:17:46;;;;;;;0.00;0.00;;;3.00;99.90;;;;;;5092453;28;20110;-49
2021/12/12 03:20:26;;;;;;;0.10;0.10;;;3.00;99.90;;;;;;5091863;28;20394;-47
2021/12/12 03:23:17;;;;;;;0.32;0.32;;;3.00;99.90;;;;;;5092081;28;20055;-50
2021/12/12 03:25:45;;;;;;;0.00;0.00;;;3.00;99.90;;;;;;5047290;28;20037;-47
2021/12/12 03:28:13;;;;;;;0.00;0.00;;;3.00;99.90;;;;;;5051733;28;20025;-47
2021/12/12 03:30:40;;;;;;;0.00;0.00;;;3.10;99.90;;;;;;5052014;28;20083;-48
2021/12/12 03:33:07;;;;;;;1.35;0.75;;;3.10;99.90;;;;;;5065404;28;20044;-47
2021/12/12 03:35:33;;;;;;;0.00;0.00;;;3.10;99.90;;;;;;5069897;28;20352;-48
2021/12/12 03:37:58;;;;;;;0.20;0.20;;;3.10;99.90;;;;;;5076359;28;20035;-44
2021/12/12 03:40:33;;;;;;;0.00;0.00;;;3.10;99.90;;;;;;5076244;28;20089;-46
2021/12/12 03:43:03;;;;;;;0.00;0.00;;;3.00;99.90;;;;;;5076626;28;20063;-48
2021/12/12 03:45:29;;;;;;;0.00;0.00;;;3.10;99.90;;;;;;5076087;28;20031;-45
2021/12/12 03:48:00;;;;;;;0.20;0.20;;;3.10;99.90;;;;;;5076237;28;20025;-46
2021/12/12 03:50:30;;;;;;;1.35;0.77;;;3.00;99.90;;;;;;5072276;28;20031;-47
2021/12/12 03:52:56;;;;;;;0.00;0.00;;;3.00;99.90;;;;;;5070610;28;20104;-48
2021/12/12 03:55:23;;;;;;;0.10;0.10;;;3.10;99.90;;;;;;5075989;28;20527;-45
2021/12/12 03:57:50;;;;;;;0.08;0.08;;;3.10;99.90;;;;;;5070403;28;20025;-45
2021/12/12 04:00:28;;;;;;;0.98;0.98;;;3.10;99.90;;;;;;5055999;28;20432;-45
2021/12/12 04:02:54;;;;;;;0.30;0.30;;;2.90;99.90;;;;;;5065283;28;20032;-50
2021/12/12 04:05:20;;;;;;;0.30;0.30;;;3.00;99.90;;;;;;5096156;28;20024;-48
2021/12/12 04:07:46;;;;;;;0.47;0.35;;;3.00;99.90;;;;;;5095661;28;20385;-46
2021/12/12 04:10:16;;;;;;;0.05;0.05;;;3.00;99.90;;;;;;5095520;28;20082;-47
2021/12/12 04:12:42;;;;;;;0.38;0.22;;;3.00;99.90;;;;;;5095738;28;20032;-47
2021/12/12 04:15:09;;;;;;;0.00;0.00;;;3.00;99.90;;;;;;5105906;28;20024;-45
2021/12/12 04:17:35;;;;;;;0.00;0.00;;;3.00;99.90;;;;;;5116367;28;20031;-45
2021/12/12 04:20:13;;;;;;;0.00;0.00;;;3.00;99.90;;;;;;5104992;28;20047;-48
2021/12/12 04:22:39;;;;;;;0.00;0.00;;;3.00;99.90;;;;;;5095667;28;20111;-45
2021/12/12 04:25:05;;;;;;;0.00;0.00;;;3.10;99.90;;;;;;5095126;28;20059;-50
2021/12/12 04:27:31;;;;;;;1.10;0.90;;;3.00;99.90;;;;;;5094719;28;20474;-48
2021/12/12 04:30:00;;;;;;;0.47;0.22;;;3.10;99.90;;;;;;5094178;28;20051;-49
2021/12/12 04:32:28;;;;;;;0.00;0.00;;;3.10;99.90;;;;;;5093584;28;20108;-45
2021/12/12 04:35:01;;;;;;;0.80;0.80;;;3.10;99.90;;;;;;5093576;28;20016;-49
2021/12/12 04:37:28;;;;;;;0.00;0.00;;;3.10;99.90;;;;;;5093539;28;20042;-47
2021/12/12 04:39:57;;;;;;;0.43;0.43;;;3.10;99.90;;;;;;5093377;28;20066;-46
2021/12/12 04:42:30;;;;;;;0.77;0.77;;;3.10;99.90;;;;;;5093408;28;20024;-50
2021/12/12 04:45:20;;;;;;;0.00;0.00;;;2.90;99.90;;;;;;5093034;28;20016;-50
2021/12/12 04:50:52;;;;;;;0.65;0.65;;;2.90;99.90;;;;;;5095044;28;20085;-46
2021/12/12 04:53:32;;;;;;;0.25;0.10;;;3.00;99.90;;;;;;5095588;28;20020;-49
2021/12/12 04:56:15;;;;;;;0.00;0.00;;;3.00;99.90;;;;;;5095303;28;20016;-47
2021/12/12 04:58:52;;;;;;;0.28;0.25;;;3.10;99.90;;;;;;5095352;28;20036;-47
2021/12/12 05:01:36;;;;;;;0.00;0.00;;;3.10;99.90;;;;;;5094912;28;20495;-44
2021/12/12 05:04:19;;;;;;;0.00;0.00;;;3.00;99.90;;;;;;5094888;28;20036;-49
2021/12/12 05:06:53;;;;;;;0.00;0.00;;;2.90;99.90;;;;;;5094775;28;20030;-47
2021/12/12 05:09:50;;;;;;;0.00;0.00;;;3.00;99.90;;;;;;5094758;28;20028;-49
2021/12/12 05:12:43;;;;;;;0.00;0.00;;;2.90;99.90;;;;;;5088355;28;20028;-45
2021/12/12 05:15:32;;;;;;;0.68;0.15;;;3.00;99.90;;;;;;5076652;28;20024;-46
2021/12/12 05:18:15;;;;;;;0.00;0.00;;;3.10;99.90;;;;;;5093925;28;20374;-50
2021/12/12 05:20:49;;;;;;;0.00;0.00;;;3.00;99.90;;;;;;5094556;28;20442;-46
2021/12/12 05:23:20;;;;;;;0.00;0.00;;;3.00;99.90;;;;;;5094695;28;20086;-49
2021/12/12 05:25:48;;;;;;;0.03;0.03;;;3.00;99.90;;;;;;5094676;28;20020;-46
2021/12/12 05:28:19;;;;;;;0.00;0.00;;;3.00;99.90;;;;;;5094596;28;20040;-49
2021/12/12 05:30:47;;;;;;;0.65;0.65;;;3.10;99.90;;;;;;5094968;28;20099;-49
2021/12/12 05:33:15;;;;;;;0.10;0.10;;;3.10;99.90;;;;;;5094589;28;20031;-47
2021/12/12 05:35:43;;;;;;;0.00;0.00;;;3.10;99.90;;;;;;5094538;28;20145;-46
2021/12/12 05:38:10;;;;;;;0.00;0.00;;;3.20;99.90;;;;;;5093192;28;20366;-48
2021/12/12 05:40:41;;;;;;;1.85;1.17;;;3.10;99.90;;;;;;5093914;28;20142;-48
2021/12/12 05:43:07;;;;;;;0.00;0.00;;;3.10;99.90;;;;;;5094245;28;20031;-48
2021/12/12 05:45:36;;;;;;;0.00;0.00;;;3.20;99.90;;;;;;5094058;28;20042;-47
2021/12/12 05:48:06;;;;;;;0.00;0.00;;;3.20;99.90;;;;;;5093841;28;20024;-46
2021/12/12 05:50:33;;;;;;;0.05;0.05;;;3.10;99.90;;;;;;5094186;28;20038;-47
2021/12/12 05:52:59;;;;;;;0.00;0.00;;;3.20;99.90;;;;;;5094159;28;20107;-45
2021/12/12 05:55:30;;;;;;;0.00;0.00;;;3.10;99.90;;;;;;5093683;28;20031;-45
2021/12/12 05:57:58;;;;;;;0.00;0.00;;;3.10;99.90;;;;;;5093599;28;20386;-45
2021/12/12 06:00:29;;;;;;;0.10;0.10;;;3.10;99.90;;;;;;5093620;28;20039;-46
2021/12/12 06:02:57;;;;;;;0.10;0.10;;;3.20;99.90;;;;;;5093789;28;20043;-47
2021/12/12 06:05:23;;;;;;;0.00;0.00;;;3.20;99.90;;;;;;5093847;28;20072;-47
2021/12/12 06:07:53;;;;;;;0.00;0.00;;;3.20;99.90;;;;;;5093854;28;20016;-50
2021/12/12 06:10:20;;;;;;;0.10;0.10;;;3.30;99.90;;;;;;5093452;28;20094;-49
2021/12/12 06:12:46;;;;;;;0.00;0.00;;;3.20;99.90;;;;;;5093943;28;20016;-49
2021/12/12 06:15:16;;;;;;;0.00;0.00;;;3.10;99.90;;;;;;5093810;28;20032;-47
2021/12/12 06:17:45;;;;;;;0.15;0.15;;;3.20;99.90;;;;;;5093905;28;20085;-47
2021/12/12 06:20:14;;;;;;;2.20;0.40;;;3.20;99.90;;;;;;5093442;28;20039;-47
2021/12/12 06:22:40;;;;;;;0.40;0.40;;;3.30;99.90;;;;;;5093687;28;20028;-46
2021/12/12 06:25:08;;;;;;;0.10;0.10;;;3.20;99.90;;;;;;5075599;28;20024;-47
2021/12/12 06:27:34;;;;;;;0.65;0.65;;;3.20;99.90;;;;;;5093596;28;20099;-48
2021/12/12 06:30:01;;;;;;;0.88;0.88;;;3.10;99.90;;;;;;5093346;28;20055;-49
2021/12/12 06:32:27;;;;;;;0.13;0.13;;;3.20;99.90;;;;;;5093334;28;20031;-49
2021/12/12 06:34:56;;;;;;;0.00;0.00;;;3.10;99.90;;;;;;5093307;28;20024;-48
2021/12/12 06:37:22;;;;;;;0.10;0.10;;;3.00;99.90;;;;;;5093335;28;20435;-45
2021/12/12 06:39:49;;;;;;;0.00;0.00;;;3.00;99.90;;;;;;5093189;28;20039;-45
2021/12/12 06:42:16;;;;;;;0.28;0.28;;;3.00;99.90;;;;;;5092257;28;20447;-46
2021/12/12 06:44:43;;;;;;;0.00;0.00;;;3.00;99.90;;;;;;5093381;28;20043;-48
2021/12/12 06:47:12;;;;;;;0.00;0.00;;;3.00;99.90;;;;;;5093335;28;20021;-47
2021/12/12 06:49:38;;;;;;;0.00;0.00;;;2.90;99.90;;;;;;5079304;28;20467;-46
2021/12/12 06:52:07;;;;;;;0.00;0.00;;;3.00;99.90;;;;;;5061103;28;20507;-47
2021/12/12 06:54:34;;;;;;;0.00;0.00;;;3.00;99.90;;;;;;5053075;28;20025;-46
2021/12/12 06:57:08;;;;;;;0.10;0.10;;;3.10;99.90;;;;;;5052893;28;20379;-46
2021/12/12 06:59:37;;;;;;;0.00;0.00;;;3.20;99.90;;;;;;5035257;28;20033;-50
2021/12/12 07:02:04;;;;;;;0.45;0.45;;;3.20;99.90;;;;;;5052710;28;20028;-46
2021/12/12 07:04:31;;;;;;;0.15;0.15;;;3.20;99.90;;;;;;5045119;28;20049;-46
2021/12/12 07:06:59;;;;;;;0.00;0.00;;;3.20;99.90;;;;;;5054452;28;20029;-46
2021/12/12 07:09:30;;;;;;;0.00;0.00;;;3.20;99.90;;;;;;5083497;28;20379;-48
2021/12/12 07:11:57;;;;;;;0.10;0.10;;;3.20;99.90;;;;;;5076903;28;20036;-46
2021/12/12 07:14:23;;;;;;;0.90;0.82;;;3.30;99.90;;;;;;5076724;28;20429;-46
2021/12/12 07:16:49;;;;;;;0.00;0.00;;;3.40;99.90;;;;;;5064906;28;20021;-48
2021/12/12 07:19:16;;;;;;;0.00;0.00;;;3.40;99.90;;;;;;5087235;28;20028;-46
2021/12/12 07:21:43;;;;;;;0.00;0.00;;;3.40;99.90;;;;;;5097016;28;20024;-47
2021/12/12 07:24:09;;;;;;;0.00;0.00;;;3.30;99.90;;;;;;5078657;28;20079;-48
2021/12/12 07:26:35;;;;;;;0.00;0.00;;;3.30;99.90;;;;;;5076486;28;20086;-43
2021/12/12 07:29:03;;;;;;;0.13;0.13;;;3.30;99.90;;;;;;5076063;28;20483;-47
2021/12/12 07:31:32;;;;;;;0.00;0.00;;;3.40;99.90;;;;;;5076152;28;20024;-49
2021/12/12 07:34:05;;;;;;;0.00;0.00;;;3.20;99.90;;;;;;5076230;28;20039;-50
2021/12/12 07:36:33;;;;;;;0.00;0.00;;;3.20;99.90;;;;;;5095582;28;20103;-45
2021/12/12 07:39:04;;;;;;;0.00;0.00;;;3.30;99.90;;;;;;5078688;28;20031;-46
2021/12/12 07:41:31;;;;;;;0.05;0.05;;;3.40;99.90;;;;;;5081089;28;20032;-47
2021/12/12 07:44:00;;;;;;;0.10;0.10;;;3.50;99.90;;;;;;5077489;28;20024;-47
2021/12/12 07:46:27;;;;;;;0.00;0.00;;;3.50;99.90;;;;;;5096009;28;20420;-45
2021/12/12 07:48:55;;;;;;;0.00;0.00;;;3.60;99.90;;;;;;5095962;28;20370;-45
2021/12/12 07:51:22;;;;;;;1.00;0.75;;;3.50;99.90;;;;;;5096247;28;20024;-47
2021/12/12 07:53:52;;;;;;;0.00;0.00;;;3.50;99.90;;;;;;5083231;28;20029;-47
2021/12/12 07:56:20;;;;;;;0.52;0.52;;;3.50;99.90;;;;;;5087829;28;20024;-45
2021/12/12 07:58:47;;;;;;;0.00;0.00;;;3.40;99.90;;;;;;5096008;28;20024;-47
2021/12/12 08:01:13;;;;;;;0.00;0.00;;;3.40;99.90;;;;;;5076532;28;20115;-46
2021/12/12 08:03:39;;;;;;;0.00;0.00;;;3.50;99.90;;;;;;5081801;28;20200;-47
2021/12/12 08:06:07;;;;;;;0.40;0.28;;;3.50;99.90;;;;;;5092136;28;20028;-45
2021/12/12 08:08:34;;;;;;;0.00;0.00;;;3.60;99.90;;;;;;5103176;28;20031;-46
2021/12/12 08:11:02;;;;;;;0.00;0.00;;;3.50;99.90;;;;;;5094500;28;20049;-47
2021/12/12 08:13:29;;;;;;;0.00;0.00;;;3.60;99.90;;;;;;5115901;28;20099;-49
2021/12/12 08:15:55;;;;;;;0.28;0.28;;;3.60;99.90;;;;;;5096866;28;20166;-46
2021/12/12 08:18:22;;;;;;;0.80;0.32;;;3.60;99.90;;;;;;5095220;28;20458;-45
2021/12/12 08:20:50;;;;;;;0.10;0.10;;;3.70;99.90;;;;;;5095227;28;20032;-46
2021/12/12 08:23:19;;;;;;;0.30;0.30;;;3.70;99.90;;;;;;5095760;28;20036;-44
2021/12/12 08:25:50;;;;;;;0.13;0.13;;;3.60;99.90;;;;;;5095816;28;20091;-46
2021/12/12 08:28:18;;;;;;;0.00;0.00;;;3.70;99.90;;;;;;5107252;28;20042;-48
2021/12/12 08:30:44;;;;;;;0.17;0.17;;;3.60;99.90;;;;;;5115612;28;20092;-49
2021/12/12 08:33:10;;;;;;;4.50;4.22;;;3.60;99.90;;;;;;5116103;28;20019;-45
2021/12/12 08:35:37;;;;;;;0.00;0.00;;;3.70;99.90;;;;;;5115588;28;20365;-49
2021/12/12 08:38:07;;;;;;;0.00;0.00;;;3.70;99.90;;;;;;5109396;28;20413;-48
2021/12/12 08:40:36;;;;;;;4.47;0.47;;;3.80;99.90;;;;;;5095199;28;20081;-47
2021/12/12 08:43:09;;;;;;;0.00;0.00;;;3.60;99.90;;;;;;5095809;28;20067;-47
2021/12/12 08:45:37;;;;;;;0.00;0.00;;;3.80;99.90;;;;;;5090585;28;20016;-46
2021/12/12 08:48:04;;;;;;;0.00;0.00;;;3.90;99.90;;;;;;5094856;28;20024;-46
2021/12/12 08:50:33;;;;;;;0.03;0.03;;;3.90;99.90;;;;;;5094804;28;20085;-46
2021/12/12 08:52:59;;;;;;;0.00;0.00;;;3.90;99.90;;;;;;5095049;28;20031;-47
2021/12/12 08:55:35;;;;;;;0.00;0.00;;;4.10;99.90;;;;;;5095103;28;20462;-46
2021/12/12 08:58:14;;;;;;;1.13;0.65;;;4.10;99.90;;;;;;5092573;28;20028;-45
2021/12/12 09:01:05;;;;;;;0.00;0.00;;;4.00;99.90;;;;;;5115293;28;20060;-47
2021/12/12 09:03:45;;;;;;;0.00;0.00;;;4.20;99.90;;;;;;5100473;28;20466;-48
2021/12/12 09:06:15;;;;;;;0.00;0.00;;;4.40;99.90;;;;;;5094684;28;20029;-46
2021/12/12 09:08:52;;;;;;;0.52;0.52;;;4.50;99.90;;;;;;5094315;28;20035;-47
2021/12/12 09:11:33;;;;;;;0.85;0.32;;;4.60;99.90;;;;;;5094326;28;20028;-46
2021/12/12 09:14:19;;;;;;;0.00;0.00;;;4.60;99.90;;;;;;5094640;28;20028;-47
2021/12/12 09:16:46;;;;;;;0.00;0.00;;;4.70;99.90;;;;;;5074428;28;20032;-48
2021/12/12 09:19:34;;;;;;;0.00;0.00;;;4.80;99.90;;;;;;5079317;28;20028;-49
2021/12/12 09:22:18;;;;;;;0.00;0.00;;;5.00;99.90;;;;;;5074151;28;20352;-48
2021/12/12 09:25:31;;;;;;;0.95;0.93;;;4.90;99.90;;;;;;5081532;28;20027;-48
2021/12/12 09:28:16;;;;;;;0.00;0.00;;;5.00;99.90;;;;;;5092135;28;20089;-46
2021/12/12 09:30:42;;;;;;;0.52;0.32;;;4.90;99.90;;;;;;5088998;28;20081;-47
2021/12/12 09:33:19;;;;;;;0.73;0.25;;;5.00;99.90;;;;;;5089757;28;20055;-47
2021/12/12 09:36:07;;;;;;;0.00;0.00;;;5.10;99.90;;;;;;5084684;28;20028;-47
2021/12/12 09:38:40;;;;;;;0.40;0.38;;;4.90;99.90;;;;;;5081836;28;20095;-47
2021/12/12 09:41:31;;;;;;;0.05;0.05;;;4.80;99.90;;;;;;5087719;28;20508;-46
2021/12/12 09:44:18;;;;;;;0.00;0.00;;;5.00;99.90;;;;;;5106333;28;20047;-46
2021/12/12 09:47:32;;;;;;;0.00;0.00;;;5.10;99.90;;;;;;5108956;28;20370;-46
2021/12/12 09:53:10;;;;;;;0.00;0.00;;;5.60;99.90;;;;;;5087426;28;20043;-48
2021/12/12 09:55:50;;;;;;;0.47;0.47;;;5.90;99.90;;;;;;5087363;28;20030;-45
2021/12/12 09:58:38;;;;;;;0.00;0.00;;;5.80;99.90;;;;;;5086083;28;20093;-47
2021/12/12 10:01:24;;;;;;;0.00;0.00;;;5.90;99.90;;;;;;5082294;28;20043;-45
2021/12/12 10:04:05;;;;;;;0.00;0.00;;;5.90;99.90;;;;;;5093432;28;20043;-51
2021/12/12 10:06:36;;;;;;;0.10;0.10;;;5.70;99.90;;;;;;5076572;28;20112;-47
2021/12/12 10:09:23;;;;;;;0.00;0.00;;;5.90;99.90;;;;;;5074422;28;20031;-49
2021/12/12 10:12:02;;;;;;;0.00;0.00;;;6.20;99.90;;;;;;5074293;28;20037;-46
2021/12/12 10:14:43;;;;;;;0.00;0.00;;;6.40;99.90;;;;;;5073306;28;20032;-48
2021/12/12 10:17:09;;;;;;;0.00;0.00;;;7.30;99.90;;;;;;5084837;28;20374;-52
2021/12/12 10:19:43;;;;;;;0.00;0.00;;;7.90;99.90;;;;;;5093063;28;20028;-47
2021/12/12 10:22:18;;;;;;;0.00;0.00;;;8.00;99.90;;;;;;5089779;28;20032;-50
2021/12/12 10:25:02;;;;;;;0.00;0.00;;;7.70;99.90;;;;;;5073446;28;20459;-48
2021/12/12 10:28:00;;;;;;;0.00;0.00;;;7.40;99.90;;;;;;5072931;28;20471;-48
2021/12/12 10:30:34;;;;;;;1.60;0.85;;;7.30;99.90;;;;;;5056134;28;20045;-48
2021/12/12 10:33:19;;;;;;;0.28;0.28;;;7.20;99.90;;;;;;5072832;28;20367;-46
2021/12/12 10:35:51;;;;;;;0.00;0.00;;;6.80;99.90;;;;;;5054747;28;20434;-47
2021/12/12 10:38:35;;;;;;;1.15;1.05;;;6.70;99.90;;;;;;5077076;28;20081;-48
2021/12/12 10:41:16;;;;;;;0.00;0.00;;;6.70;99.90;;;;;;5076284;28;20029;-45
2021/12/12 10:43:50;;;;;;;0.00;0.00;;;6.70;99.90;;;;;;5076092;28;20537;-49
2021/12/12 10:46:32;;;;;;;0.00;0.00;;;6.70;99.90;;;;;;5082973;28;20036;-47
2021/12/12 10:49:28;;;;;;;0.00;0.00;;;6.80;99.90;;;;;;5078596;28;20080;-47
2021/12/12 10:52:20;;;;;;;0.00;0.00;;;6.80;99.90;;;;;;5081044;28;20111;-45
2021/12/12 10:54:53;;;;;;;0.00;0.00;;;6.80;99.90;;;;;;5089597;28;20035;-49
2021/12/12 10:57:25;;;;;;;0.00;0.00;;;6.90;99.90;;;;;;5080111;28;20028;-48
2021/12/12 11:00:02;;;;;;;3.30;0.25;;;6.90;99.90;;;;;;5085012;28;20078;-50
2021/12/12 11:02:39;;;;;;;0.70;0.20;;;6.90;99.90;;;;;;5078535;28;20028;-49
2021/12/12 11:05:08;;;;;;;1.10;0.40;;;6.80;99.90;;;;;;5077664;28;20048;-49
2021/12/12 11:07:43;;;;;;;0.15;0.08;;;6.70;99.90;;;;;;5077112;28;20036;-46
2021/12/12 11:10:35;;;;;;;0.00;0.00;;;6.60;99.90;;;;;;5080694;28;20103;-47
2021/12/12 11:13:18;;;;;;;2.63;0.30;;;6.60;99.90;;;;;;5074343;28;20032;-50
2021/12/12 11:15:47;;;;;;;0.00;0.00;;;6.50;99.90;;;;;;5076355;28;20020;-45
2021/12/12 11:18:15;;;;;;;0.00;0.00;;;6.60;99.90;;;;;;5077719;28;20036;-48
2021/12/12 11:20:42;;;;;;;1.17;1.08;;;6.50;99.90;;;;;;5077682;28;20047;-47
2021/12/12 11:23:15;;;;;;;0.10;0.10;;;6.50;99.90;;;;;;5078835;28;20089;-49
2021/12/12 11:25:58;;;;;;;0.00;0.00;;;6.70;99.90;;;;;;5075948;28;20033;-45
2021/12/12 11:28:33;;;;;;;0.75;0.63;;;6.80;99.90;;;;;;5091654;28;20050;-45
2021/12/12 11:31:32;;;;;;;0.00;0.00;;;6.80;99.90;;;;;;5083947;28;20048;-48
2021/12/12 11:33:58;;;;;;;0.00;0.00;;;7.00;99.90;;;;;;5090462;28;20103;-47
2021/12/12 11:36:32;;;;;;;0.00;0.00;;;7.70;99.90;;;;;;5058963;28;20029;-48
2021/12/12 11:39:16;;;;;;;0.00;0.00;;;8.60;99.90;;;;;;5076332;28;20462;-45
2021/12/12 11:41:59;;;;;;;0.00;0.00;;;8.50;99.90;;;;;;5075973;28;20395;-49
2021/12/12 11:44:36;;;;;;;0.03;0.00;;;8.30;99.90;;;;;;5064036;28;20059;-47
2021/12/12 11:47:08;;;;;;;0.05;0.05;;;8.00;99.90;;;;;;5075315;28;20024;-46
2021/12/12 11:49:50;;;;;;;0.00;0.00;;;7.70;99.90;;;;;;5077263;28;20498;-49
2021/12/12 11:52:29;;;;;;;0.00;0.00;;;7.60;99.90;;;;;;5075541;28;20028;-47
2021/12/12 11:55:00;;;;;;;0.00;0.00;;;7.40;99.90;;;;;;5078894;28;20378;-48
2021/12/12 11:57:28;;;;;;;;;;;7.50;99.90;;;;;;5080980;28;20028;-47
2021/12/12 12:00:09;;;;;;;0.00;0.00;;;7.40;99.90;;;;;;5084256;28;19997;-52
2021/12/12 12:02:40;;;;;;;;;;;7.40;99.90;;;;;;5090805;28;20028;-49
2021/12/12 12:05:06;;;;;;;0.00;0.00;;;7.30;99.90;;;;;;5084704;28;19927;-52
2021/12/12 12:08:33;;;;;;;0.00;0.00;;;7.50;99.90;;;;;;5077495;28;20025;-46
2021/12/12 12:11:19;;;;;;;0.00;0.00;;;7.30;99.90;;;;;;5026806;28;20468;-49
2021/12/12 12:14:06;;;;;;;0.00;0.00;;;7.30;99.90;;;;;;5026909;28;20052;-50
2021/12/12 12:16:35;;;;;;;0.00;0.00;;;7.40;99.90;;;;;;5076503;28;20036;-47
2021/12/12 12:19:06;;;;;;;0.10;0.10;;;7.20;99.90;;;;;;5091389;28;20024;-47
2021/12/12 12:22:10;;;;;;;0.00;0.00;;;7.20;99.90;;;;;;5076871;28;20067;-48
2021/12/12 12:24:55;;;;;;;0.00;0.00;;;7.40;99.90;;;;;;5075264;28;20036;-46
2021/12/12 12:27:49;;;;;;;0.00;0.00;;;7.40;99.90;;;;;;5076461;28;20036;-48
2021/12/12 12:30:52;;;;;;;0.00;0.00;;;7.50;99.90;;;;;;5081161;28;20432;-49
2021/12/12 12:33:42;;;;;;;0.00;0.00;;;7.50;99.90;;;;;;5094005;28;20069;-50
2021/12/12 12:36:46;;;;;;;0.00;0.00;;;7.30;99.90;;;;;;5086570;28;20455;-48
2021/12/12 12:39:30;;;;;;;0.00;0.00;;;7.50;99.90;;;;;;5084218;28;20040;-48
2021/12/12 12:42:21;;;;;;;0.00;0.00;;;7.20;99.90;;;;;;5091829;28;20039;-46
2021/12/12 12:45:27;;;;;;;0.00;0.00;;;7.30;99.90;;;;;;5078107;28;20379;-46
2021/12/12 12:48:12;;;;;;;0.00;0.00;;;7.40;99.90;;;;;;5075236;28;20035;-49
2021/12/12 12:50:39;;;;;;;0.00;0.00;;;7.30;99.90;;;;;;5074783;28;20119;-48
2021/12/12 12:53:30;;;;;;;0.00;0.00;;;7.30;99.90;;;;;;5091006;28;20036;-47
2021/12/12 12:56:23;;;;;;;0.10;0.10;;;7.00;99.90;;;;;;5076594;28;20024;-47
2021/12/12 12:58:55;;;;;;;0.00;0.00;;;7.00;99.90;;;;;;5076652;28;20438;-46
2021/12/12 13:01:44;;;;;;;0.00;0.00;;;7.00;99.90;;;;;;5092746;28;20028;-45
2021/12/12 13:04:22;;;;;;;0.00;0.00;;;7.10;99.90;;;;;;5071072;28;20546;-47
2021/12/12 13:07:10;;;;;;;0.00;0.00;;;7.10;99.90;;;;;;5091827;28;20028;-48
2021/12/12 13:09:47;;;;;;;0.00;0.00;;;7.10;99.90;;;;;;5093928;28;20119;-45
2021/12/12 13:12:34;;;;;;;0.00;0.00;;;7.00;99.90;;;;;;5076821;28;20056;-52
2021/12/12 13:15:08;;;;;;;0.00;0.00;;;6.90;99.90;;;;;;5075201;28;20025;-46
2021/12/12 13:17:52;;;;;;;0.00;0.00;;;7.00;99.90;;;;;;5090933;28;20071;-47
2021/12/12 13:20:39;;;;;;;0.00;0.00;;;6.90;99.90;;;;;;5091061;28;20066;-46
2021/12/12 13:23:22;;;;;;;0.00;0.00;;;6.90;99.90;;;;;;5090726;28;20028;-51
2021/12/12 13:25:56;;;;;;;0.00;0.00;;;6.90;99.90;;;;;;5073374;28;20070;-51
2021/12/12 13:28:31;;;;;;;0.00;0.00;;;6.80;99.90;;;;;;5089963;28;20031;-51
2021/12/12 13:31:16;;;;;;;0.00;0.00;;;6.70;99.90;;;;;;5075058;28;20494;-50
2021/12/12 13:33:54;;;;;;;0.00;0.00;;;6.80;99.90;;;;;;5087860;28;20103;-48
2021/12/12 13:36:57;;;;;;;0.00;0.00;;;6.80;99.90;;;;;;5089391;28;20024;-47
2021/12/12 13:39:40;;;;;;;0.00;0.00;;;6.90;99.90;;;;;;5080618;28;20051;-54
2021/12/12 13:42:20;;;;;;;0.00;0.00;;;7.00;99.90;;;;;;5090875;28;20078;-53
2021/12/12 13:45:02;;;;;;;0.00;0.00;;;6.80;99.90;;;;;;5075643;28;20028;-48
2021/12/12 13:47:34;;;;;;;0.00;0.00;;;6.70;99.90;;;;;;5073058;28;20020;-49